createdAt,value
2023-03-20T00:00:59.459Z,11.32
2023-03-20T00:03:27.550Z,11.28
2023-03-20T00:05:54.243Z,11.24
2023-03-20T00:08:21.005Z,11.22
2023-03-20T00:10:47.678Z,11.18
2023-03-20T00:13:21.141Z,11.12
2023-03-20T00:15:47.826Z,11.04
2023-03-20T00:18:20.436Z,11.00
2023-03-20T00:20:47.435Z,10.89
2023-03-20T00:23:14.298Z,10.89
2023-03-20T00:25:42.380Z,10.77
2023-03-20T00:28:41.770Z,10.64
2023-03-20T00:31:28.974Z,10.44
2023-03-20T00:33:58.290Z,10.37
2023-03-20T00:36:25.504Z,10.32
2023-03-20T00:38:52.598Z,10.23
2023-03-20T00:41:29.030Z,10.23
2023-03-20T00:44:00.952Z,10.15
2023-03-20T00:46:29.306Z,10.21
2023-03-20T00:48:56.050Z,10.17
2023-03-20T00:51:22.708Z,10.19
2023-03-20T00:53:49.269Z,10.18
2023-03-20T00:56:40.528Z,10.09
2023-03-20T00:59:13.859Z,10.03
2023-03-20T01:01:40.547Z,10.01
2023-03-20T01:04:14.116Z,10.02
2023-03-20T01:06:40.933Z,9.99
2023-03-20T01:09:07.842Z,10.00
2023-03-20T01:11:35.307Z,9.98
2023-03-20T01:14:02.277Z,9.92
2023-03-20T01:16:29.006Z,9.90
2023-03-20T01:18:55.855Z,9.86
2023-03-20T01:21:22.564Z,9.91
2023-03-20T01:23:50.588Z,9.94
2023-03-20T01:26:54.770Z,9.92
2023-03-20T01:29:27.690Z,9.91
2023-03-20T01:31:54.687Z,9.89
2023-03-20T01:34:21.375Z,9.85
2023-03-20T01:36:53.964Z,9.83
2023-03-20T01:39:24.369Z,9.87
2023-03-20T01:41:53.051Z,9.89
2023-03-20T01:44:31.114Z,9.95
2023-03-20T01:46:58.903Z,9.92
2023-03-20T01:49:25.493Z,9.93
2023-03-20T01:51:52.593Z,9.96
2023-03-20T01:54:24.291Z,9.97
2023-03-20T01:57:08.844Z,10.02
2023-03-20T01:59:46.144Z,10.05
2023-03-20T02:02:17.667Z,10.00
2023-03-20T02:04:47.983Z,9.98
2023-03-20T02:07:18.374Z,9.96
2023-03-20T02:09:47.922Z,9.92
2023-03-20T02:12:15.145Z,9.87
2023-03-20T02:14:41.761Z,9.92
2023-03-20T02:17:10.508Z,9.99
2023-03-20T02:19:48.775Z,10.03
2023-03-20T02:22:18.309Z,10.11
2023-03-20T02:24:53.647Z,10.18
2023-03-20T02:28:10.008Z,10.26
2023-03-20T02:31:10.639Z,10.34
2023-03-20T02:33:58.907Z,10.37
2023-03-20T02:36:41.206Z,10.37
2023-03-20T02:39:36.213Z,10.35
2023-03-20T02:42:26.850Z,10.41
2023-03-20T02:45:18.072Z,10.41
2023-03-20T02:48:14.274Z,10.44
2023-03-20T02:51:01.792Z,10.37
2023-03-20T02:53:56.837Z,10.28
2023-03-20T02:56:36.936Z,10.34
2023-03-20T02:59:40.795Z,10.31
2023-03-20T03:02:12.791Z,10.31
2023-03-20T03:05:01.043Z,10.29
2023-03-20T03:07:33.238Z,10.19
2023-03-20T03:10:11.637Z,10.13
2023-03-20T03:12:43.372Z,10.08
2023-03-20T03:15:36.764Z,10.11
2023-03-20T03:18:06.695Z,10.06
2023-03-20T03:20:38.210Z,10.07
2023-03-20T03:23:06.669Z,10.10
2023-03-20T03:25:38.142Z,10.09
2023-03-20T03:28:16.098Z,10.09
2023-03-20T03:30:45.209Z,10.07
2023-03-20T03:33:11.821Z,10.06
2023-03-20T03:35:40.227Z,10.09
2023-03-20T03:38:28.682Z,10.08
2023-03-20T03:41:14.358Z,10.10
2023-03-20T03:43:52.384Z,10.16
2023-03-20T03:46:35.788Z,10.22
2023-03-20T03:49:05.886Z,10.26
2023-03-20T03:51:37.383Z,10.24
2023-03-20T03:54:11.613Z,10.25
2023-03-20T03:56:40.817Z,10.27
2023-03-20T03:59:20.778Z,10.28
2023-03-20T04:01:50.876Z,10.32
2023-03-20T04:04:20.492Z,10.30
2023-03-20T04:06:47.343Z,10.33
2023-03-20T04:09:13.994Z,10.35
2023-03-20T04:11:40.954Z,10.33
2023-03-20T04:14:07.874Z,10.39
2023-03-20T04:16:34.604Z,10.41
2023-03-20T04:19:01.225Z,10.41
2023-03-20T04:21:27.811Z,10.40
2023-03-20T04:23:54.345Z,10.40
2023-03-20T04:26:21.795Z,10.38
2023-03-20T04:28:48.361Z,10.39
2023-03-20T04:31:14.970Z,10.40
2023-03-20T04:33:41.987Z,10.41
2023-03-20T04:36:09.052Z,10.41
2023-03-20T04:38:35.949Z,10.37
2023-03-20T04:41:03.478Z,10.38
2023-03-20T04:43:30.267Z,10.34
2023-03-20T04:45:57.021Z,10.25
2023-03-20T04:48:23.727Z,10.24
2023-03-20T04:50:51.019Z,10.22
2023-03-20T04:53:18.393Z,10.25
2023-03-20T04:55:45.929Z,10.22
2023-03-20T04:58:12.687Z,10.23
2023-03-20T05:00:39.290Z,10.25
2023-03-20T05:03:05.887Z,10.22
2023-03-20T05:05:33.431Z,10.22
2023-03-20T05:08:00.135Z,10.12
2023-03-20T05:10:26.776Z,10.04
2023-03-20T05:12:53.406Z,10.01
2023-03-20T05:15:20.035Z,10.01
2023-03-20T05:17:47.370Z,10.02
2023-03-20T05:20:14.310Z,10.02
2023-03-20T05:22:40.988Z,10.02
2023-03-20T05:25:08.141Z,9.99
2023-03-20T05:27:34.722Z,9.94
2023-03-20T05:30:01.266Z,9.90
2023-03-20T05:32:27.814Z,9.88
2023-03-20T05:34:54.469Z,9.84
2023-03-20T05:37:21.054Z,9.80
2023-03-20T05:39:47.728Z,9.81
2023-03-20T05:42:14.320Z,9.79
2023-03-20T05:44:41.210Z,9.76
2023-03-20T05:47:07.817Z,9.66
2023-03-20T05:49:34.373Z,9.59
2023-03-20T05:52:01.125Z,9.51
2023-03-20T05:54:27.707Z,9.45
2023-03-20T05:56:54.415Z,9.40
2023-03-20T05:59:21.100Z,9.44
2023-03-20T06:01:47.689Z,9.43
2023-03-20T06:04:14.219Z,9.48
2023-03-20T06:06:42.009Z,9.57
2023-03-20T06:09:08.720Z,9.58
2023-03-20T06:11:37.448Z,9.59
2023-03-20T06:14:04.179Z,9.64
2023-03-20T06:16:31.093Z,9.61
2023-03-20T06:18:58.372Z,9.67
2023-03-20T06:21:25.068Z,9.67
2023-03-20T06:23:51.950Z,9.69
2023-03-20T06:26:18.591Z,9.72
2023-03-20T06:28:45.357Z,9.81
2023-03-20T06:31:12.381Z,9.91
2023-03-20T06:33:40.227Z,9.99
2023-03-20T06:36:06.962Z,10.16
2023-03-20T06:38:33.547Z,10.38
2023-03-20T06:41:00.177Z,10.68
2023-03-20T06:43:26.827Z,11.06
2023-03-20T06:45:53.538Z,11.36
2023-03-20T06:48:22.940Z,11.58
2023-03-20T06:50:53.073Z,12.04
2023-03-20T06:53:20.046Z,12.35
2023-03-20T06:55:51.688Z,12.84
2023-03-20T06:58:18.734Z,13.24
2023-03-20T07:00:46.590Z,13.38
2023-03-20T07:03:13.566Z,13.44
2023-03-20T07:05:40.428Z,13.86
2023-03-20T07:08:10.314Z,14.11
2023-03-20T07:10:38.034Z,14.72
2023-03-20T07:13:04.724Z,14.95
2023-03-20T07:15:32.422Z,15.20
2023-03-20T07:17:59.065Z,15.72
2023-03-20T07:20:25.612Z,15.79
2023-03-20T07:22:52.364Z,15.96
2023-03-20T07:25:23.991Z,16.39
2023-03-20T07:27:59.267Z,16.57
2023-03-20T07:30:26.008Z,16.62
2023-03-20T07:32:52.677Z,16.51
2023-03-20T07:35:19.330Z,16.56
2023-03-20T07:37:46.103Z,16.59
2023-03-20T07:40:13.024Z,16.95
2023-03-20T07:42:39.745Z,17.37
2023-03-20T07:45:07.003Z,17.10
2023-03-20T07:47:33.736Z,16.77
2023-03-20T07:50:00.566Z,16.91
2023-03-20T07:52:27.246Z,17.06
2023-03-20T07:54:53.838Z,17.22
2023-03-20T07:57:20.502Z,17.29
2023-03-20T07:59:47.275Z,16.76
2023-03-20T08:02:18.023Z,16.41
2023-03-20T08:04:46.414Z,16.56
2023-03-20T08:07:12.997Z,17.34
2023-03-20T08:09:39.887Z,17.97
2023-03-20T08:12:07.325Z,18.13
2023-03-20T08:14:34.182Z,18.35
2023-03-20T08:17:13.606Z,18.77
2023-03-20T08:19:41.350Z,19.25
2023-03-20T08:22:08.005Z,19.09
2023-03-20T08:24:34.678Z,19.68
2023-03-20T08:27:01.203Z,20.05
2023-03-20T08:29:27.880Z,19.61
2023-03-20T08:31:54.490Z,18.49
2023-03-20T08:34:23.869Z,19.28
2023-03-20T08:36:52.447Z,19.57
2023-03-20T08:39:18.908Z,19.53
2023-03-20T08:41:45.904Z,19.30
2023-03-20T08:44:13.814Z,19.69
2023-03-20T08:46:40.622Z,18.19
2023-03-20T08:49:07.250Z,17.83
2023-03-20T08:51:34.017Z,17.94
2023-03-20T08:54:00.728Z,18.76
2023-03-20T08:56:27.397Z,17.97
2023-03-20T08:58:56.124Z,19.02
2023-03-20T09:01:23.289Z,19.45
2023-03-20T09:03:49.853Z,18.99
2023-03-20T09:06:16.588Z,19.38
2023-03-20T09:08:43.283Z,19.89
2023-03-20T09:11:09.902Z,18.95
2023-03-20T09:13:36.569Z,18.80
2023-03-20T09:16:03.754Z,19.66
2023-03-20T09:18:30.713Z,20.03
2023-03-20T09:20:57.305Z,18.16
2023-03-20T09:23:23.957Z,17.47
2023-03-20T09:25:50.581Z,18.45
2023-03-20T09:28:17.159Z,19.88
2023-03-20T09:30:44.259Z,20.28
2023-03-20T09:33:11.354Z,20.99
2023-03-20T09:35:38.221Z,21.56
2023-03-20T09:38:04.802Z,21.83
2023-03-20T09:40:52.608Z,19.59
2023-03-20T09:43:44.688Z,19.75
2023-03-20T09:46:26.333Z,21.05
2023-03-20T09:49:16.080Z,21.18
2023-03-20T09:51:56.158Z,20.03
2023-03-20T09:54:27.058Z,19.55
2023-03-20T09:56:56.593Z,21.18
2023-03-20T09:59:25.688Z,21.94
2023-03-20T10:01:59.932Z,22.21
2023-03-20T10:04:29.408Z,22.49
2023-03-20T10:06:59.394Z,22.52
2023-03-20T10:09:28.999Z,22.64
2023-03-20T10:12:10.823Z,21.30
2023-03-20T10:14:43.005Z,22.17
2023-03-20T10:17:43.556Z,22.40
2023-03-20T10:20:28.771Z,22.16
2023-03-20T10:23:04.438Z,19.65
2023-03-20T10:25:34.507Z,20.74
2023-03-20T10:28:06.262Z,20.40
2023-03-20T10:30:50.666Z,21.76
2023-03-20T10:33:27.056Z,21.31
2023-03-20T10:35:59.790Z,21.97
2023-03-20T10:38:29.464Z,20.03
2023-03-20T10:40:58.192Z,20.47
2023-03-20T10:43:30.972Z,20.97
2023-03-20T10:46:13.414Z,21.48
2023-03-20T10:48:49.525Z,21.78
2023-03-20T10:51:22.381Z,21.47
2023-03-20T10:53:57.548Z,20.58
2023-03-20T10:56:32.479Z,20.79
2023-03-20T10:59:22.275Z,21.30
2023-03-20T11:01:48.938Z,21.41
2023-03-20T11:04:15.554Z,20.28
2023-03-20T11:07:03.362Z,20.25
2023-03-20T11:09:31.190Z,19.97
2023-03-20T11:11:59.361Z,18.38
2023-03-20T11:14:32.130Z,19.36
2023-03-20T11:17:02.036Z,20.07
2023-03-20T11:19:34.333Z,19.63
2023-03-20T11:22:07.228Z,19.26
2023-03-20T11:24:44.859Z,19.27
2023-03-20T11:27:18.536Z,19.27
2023-03-20T11:29:49.118Z,19.58
2023-03-20T11:32:39.444Z,19.45
2023-03-20T11:35:24.138Z,19.24
2023-03-20T11:37:53.212Z,19.35
2023-03-20T11:40:33.808Z,19.80
2023-03-20T11:43:00.441Z,19.14
2023-03-20T11:45:35.773Z,18.71
2023-03-20T11:48:04.165Z,18.29
2023-03-20T11:50:36.748Z,18.69
2023-03-20T11:53:20.306Z,18.96
2023-03-20T11:56:10.995Z,18.53
2023-03-20T11:58:56.829Z,18.77
2023-03-20T12:01:24.860Z,18.30
2023-03-20T12:04:11.455Z,18.47
2023-03-20T12:06:51.377Z,19.18
2023-03-20T12:09:38.090Z,19.30
2023-03-20T12:12:42.924Z,19.50
2023-03-20T12:15:45.089Z,19.45
2023-03-20T12:18:29.122Z,18.68
2023-03-20T12:21:12.880Z,18.89
2023-03-20T12:23:58.225Z,18.92
2023-03-20T12:26:34.734Z,19.05
2023-03-20T12:29:51.766Z,19.30
2023-03-20T12:32:31.065Z,19.29
2023-03-20T12:35:11.068Z,18.22
2023-03-20T12:37:37.893Z,18.16
2023-03-20T12:40:05.211Z,18.22
2023-03-20T12:42:51.179Z,17.75
2023-03-20T12:45:20.191Z,18.41
2023-03-20T12:48:18.325Z,18.47
2023-03-20T12:50:47.956Z,19.06
2023-03-20T12:53:44.876Z,19.43
2023-03-20T12:56:30.190Z,20.01
2023-03-20T12:59:14.660Z,19.00
2023-03-20T13:02:00.330Z,18.53
2023-03-20T13:04:50.144Z,19.10
2023-03-20T13:07:41.343Z,18.21
2023-03-20T13:10:39.839Z,18.17
2023-03-20T13:13:25.704Z,18.53
2023-03-20T13:16:18.999Z,18.67
2023-03-20T13:18:52.895Z,18.84
2023-03-20T13:21:42.712Z,19.48
2023-03-20T13:24:22.731Z,19.13
2023-03-20T13:27:01.870Z,19.38
2023-03-20T13:29:40.319Z,19.47
2023-03-20T13:32:16.060Z,19.50
2023-03-20T13:34:42.607Z,19.17
2023-03-20T13:37:24.429Z,18.81
2023-03-20T13:40:15.902Z,19.15
2023-03-20T13:42:50.461Z,19.66
2023-03-20T13:45:35.077Z,18.94
2023-03-20T13:48:19.803Z,19.16
2023-03-20T13:50:59.763Z,19.50
2023-03-20T13:53:35.250Z,18.85
2023-03-20T13:56:43.025Z,18.88
2023-03-20T13:59:30.860Z,19.10
2023-03-20T14:02:07.744Z,18.83
2023-03-20T14:04:35.323Z,18.97
2023-03-20T14:07:01.908Z,18.94
2023-03-20T14:09:35.852Z,18.80
2023-03-20T14:12:12.243Z,18.85
2023-03-20T14:14:53.967Z,18.83
2023-03-20T14:17:26.465Z,18.62
2023-03-20T14:19:54.719Z,18.39
2023-03-20T14:22:34.314Z,18.44
2023-03-20T14:25:09.438Z,18.26
2023-03-20T14:27:59.731Z,18.42
2023-03-20T14:30:32.097Z,18.45
2023-03-20T14:33:00.291Z,18.58
2023-03-20T14:35:29.048Z,18.36
2023-03-20T14:38:07.722Z,18.85
2023-03-20T14:40:41.206Z,18.56
2023-03-20T14:43:20.004Z,18.63
2023-03-20T14:45:58.713Z,19.00
2023-03-20T14:48:45.947Z,18.83
2023-03-20T14:51:31.026Z,18.85
2023-03-20T14:54:24.267Z,18.70
2023-03-20T14:56:52.011Z,18.65
2023-03-20T14:59:22.643Z,18.68
2023-03-20T15:01:58.980Z,18.42
2023-03-20T15:04:28.290Z,18.66
2023-03-20T15:06:59.352Z,18.96
2023-03-20T15:09:29.468Z,18.43
2023-03-20T15:12:04.193Z,17.89
2023-03-20T15:14:42.402Z,17.77
2023-03-20T15:17:36.979Z,17.84
2023-03-20T15:20:19.352Z,17.64
2023-03-20T15:23:00.996Z,17.52
2023-03-20T15:25:40.225Z,17.55
2023-03-20T15:28:09.293Z,17.65
2023-03-20T15:30:39.171Z,17.44
2023-03-20T15:33:07.301Z,17.35
2023-03-20T15:35:34.370Z,17.33
2023-03-20T15:38:06.524Z,17.28
2023-03-20T15:40:50.238Z,17.26
2023-03-20T15:43:24.869Z,17.20
2023-03-20T15:46:02.887Z,16.93
2023-03-20T15:48:36.883Z,17.03
2023-03-20T15:51:05.597Z,16.96
2023-03-20T15:53:34.634Z,16.89
2023-03-20T15:56:18.351Z,16.71
2023-03-20T15:58:47.772Z,16.75
2023-03-20T16:01:19.245Z,16.91
2023-03-20T16:03:46.500Z,16.77
2023-03-20T16:06:16.549Z,16.74
2023-03-20T16:08:45.601Z,16.75
2023-03-20T16:11:17.538Z,16.80
2023-03-20T16:13:47.070Z,16.81
2023-03-20T16:16:21.193Z,16.77
2023-03-20T16:18:48.599Z,16.72
2023-03-20T16:21:36.980Z,16.69
2023-03-20T16:24:16.073Z,16.55
2023-03-20T16:29:42.467Z,16.49
2023-03-20T16:32:27.705Z,16.56
2023-03-20T16:34:57.805Z,16.36
2023-03-20T16:37:30.573Z,16.31
2023-03-20T16:40:18.398Z,16.32
2023-03-20T16:42:46.184Z,16.16
2023-03-20T16:45:22.693Z,16.07
2023-03-20T16:47:50.801Z,16.03
2023-03-20T16:50:19.573Z,15.94
2023-03-20T16:52:52.282Z,15.76
2023-03-20T16:55:26.663Z,15.74
2023-03-20T16:58:03.674Z,15.66
2023-03-20T17:01:03.886Z,15.64
2023-03-20T17:03:40.436Z,15.57
2023-03-20T17:06:28.031Z,15.47
2023-03-20T17:09:16.123Z,15.39
2023-03-20T17:11:49.257Z,15.21
2023-03-20T17:14:16.699Z,15.11
2023-03-20T17:16:44.126Z,14.96
2023-03-20T17:19:17.503Z,14.96
2023-03-20T17:21:45.972Z,14.84
2023-03-20T17:24:14.395Z,14.80
2023-03-20T17:26:43.183Z,14.74
2023-03-20T17:29:13.796Z,14.63
2023-03-20T17:31:40.408Z,14.58
2023-03-20T17:34:07.136Z,14.52
2023-03-20T17:36:35.178Z,14.46
2023-03-20T17:39:02.235Z,14.38
2023-03-20T17:41:29.164Z,14.30
2023-03-20T17:43:56.699Z,14.21
2023-03-20T17:46:29.242Z,14.18
2023-03-20T17:49:02.437Z,14.12
2023-03-20T17:51:29.852Z,14.10
2023-03-20T17:53:57.926Z,14.07
2023-03-20T17:56:30.127Z,14.05
2023-03-20T17:58:57.559Z,14.01
2023-03-20T18:01:24.579Z,13.98
2023-03-20T18:03:51.276Z,13.90
2023-03-20T18:06:35.712Z,13.94
2023-03-20T18:09:02.882Z,13.93
2023-03-20T18:11:29.615Z,13.90
2023-03-20T18:13:56.355Z,13.87
2023-03-20T18:16:25.373Z,13.83
2023-03-20T18:18:53.202Z,13.80
2023-03-20T18:21:20.254Z,13.81
2023-03-20T18:23:47.081Z,13.78
2023-03-20T18:26:25.620Z,13.77
2023-03-20T18:28:54.440Z,13.70
2023-03-20T18:31:21.411Z,13.65
2023-03-20T18:33:49.892Z,13.58
2023-03-20T18:36:19.143Z,13.56
2023-03-20T18:38:46.555Z,13.54
2023-03-20T18:41:13.655Z,13.44
2023-03-20T18:43:40.741Z,13.37
2023-03-20T18:46:13.211Z,13.30
2023-03-20T18:48:39.901Z,13.28
2023-03-20T18:51:06.673Z,13.22
2023-03-20T18:53:33.254Z,13.15
2023-03-20T18:56:00.723Z,13.04
2023-03-20T18:58:29.820Z,13.00
2023-03-20T19:00:59.600Z,12.93
2023-03-20T19:03:28.596Z,12.90
2023-03-20T19:05:57.931Z,12.85
2023-03-20T19:08:25.117Z,12.78
2023-03-20T19:10:52.246Z,12.80
2023-03-20T19:13:21.141Z,12.75
2023-03-20T19:15:47.728Z,12.68
2023-03-20T19:18:20.298Z,12.66
2023-03-20T19:20:57.848Z,12.62
2023-03-20T19:23:27.206Z,12.58
2023-03-20T19:25:55.271Z,12.57
2023-03-20T19:28:40.066Z,12.51
2023-03-20T19:31:09.605Z,12.44
2023-03-20T19:33:38.467Z,12.35
2023-03-20T19:36:06.654Z,12.29
2023-03-20T19:38:34.718Z,12.20
2023-03-20T19:41:03.717Z,12.12
2023-03-20T19:43:30.412Z,12.06
2023-03-20T19:45:59.259Z,12.02
2023-03-20T19:48:46.218Z,11.98
2023-03-20T19:51:19.446Z,11.92
2023-03-20T19:53:47.503Z,11.89
2023-03-20T19:56:15.655Z,11.82
2023-03-20T19:58:43.403Z,11.78
2023-03-20T20:01:15.901Z,11.68
2023-03-20T20:03:43.078Z,11.63
2023-03-20T20:06:09.947Z,11.53
2023-03-20T20:08:48.009Z,11.58
2023-03-20T20:11:16.898Z,11.55
2023-03-20T20:14:04.198Z,11.46
2023-03-20T20:16:30.804Z,11.41
2023-03-20T20:18:57.435Z,11.40
2023-03-20T20:24:10.809Z,11.30
2023-03-20T20:26:41.245Z,11.26
2023-03-20T20:29:14.465Z,11.21
2023-03-20T20:31:41.073Z,11.16
2023-03-20T20:35:07.281Z,11.08
2023-03-20T20:39:41.080Z,10.93
2023-03-20T20:42:07.804Z,10.87
2023-03-20T20:44:34.755Z,10.76
2023-03-20T20:47:01.454Z,10.69
2023-03-20T20:49:28.016Z,10.67
2023-03-20T20:51:54.644Z,10.63
2023-03-20T20:54:21.378Z,10.57
2023-03-20T20:56:48.025Z,10.49
2023-03-20T20:59:14.672Z,10.54
2023-03-20T21:01:41.410Z,10.53
2023-03-20T21:04:08.078Z,10.53
2023-03-20T21:07:05.781Z,10.52
2023-03-20T21:09:21.279Z,10.54
2023-03-20T21:11:48.714Z,10.54
2023-03-20T21:14:15.447Z,10.57
2023-03-20T21:16:42.082Z,10.56
2023-03-20T21:19:08.713Z,10.62
2023-03-20T21:21:37.842Z,10.64
2023-03-20T21:24:06.686Z,10.57
2023-03-20T21:26:33.268Z,10.62
2023-03-20T21:29:00.023Z,10.59
2023-03-20T21:31:30.862Z,10.53
2023-03-20T21:33:58.211Z,10.46
2023-03-20T21:36:25.174Z,10.41
2023-03-20T21:39:09.061Z,10.37
2023-03-20T21:41:40.530Z,10.35
2023-03-20T21:44:08.248Z,10.33
2023-03-20T21:50:23.275Z,10.29
2023-03-20T21:52:56.890Z,10.23
2023-03-20T22:03:47.739Z,10.25
2023-03-20T22:17:57.467Z,10.19
2023-03-20T22:20:56.420Z,10.07
2023-03-20T22:26:44.248Z,10.08
2023-03-20T22:42:50.749Z,9.98
2023-03-20T22:45:09.623Z,9.98
2023-03-20T22:47:36.625Z,9.96
2023-03-20T22:50:03.882Z,9.93
2023-03-20T22:52:49.548Z,9.89
2023-03-20T22:55:17.398Z,9.87
2023-03-20T22:57:56.186Z,9.83
2023-03-20T23:00:30.599Z,9.82
2023-03-20T23:03:06.678Z,9.80
2023-03-20T23:05:38.883Z,9.84
2023-03-20T23:08:07.918Z,9.86
2023-03-20T23:10:37.702Z,9.79
2023-03-20T23:13:04.704Z,9.72
2023-03-20T23:15:31.651Z,9.67
2023-03-20T23:17:58.262Z,9.65
2023-03-20T23:20:25.506Z,9.57
2023-03-20T23:22:52.052Z,9.48
2023-03-20T23:25:35.984Z,9.41
2023-03-20T23:28:04.907Z,9.39
2023-03-20T23:30:43.541Z,9.36
2023-03-20T23:33:11.773Z,9.31
2023-03-20T23:35:38.420Z,9.30
2023-03-20T23:38:05.358Z,9.27
2023-03-20T23:40:32.168Z,9.28
2023-03-20T23:42:58.684Z,9.33
2023-03-20T23:45:25.390Z,9.30
2023-03-20T23:47:51.977Z,9.25
2023-03-20T23:50:30.377Z,9.24
2023-03-20T23:53:17.508Z,9.21
2023-03-20T23:55:47.344Z,9.18
2023-03-20T23:58:15.721Z,9.14
